Terminal Aerodrome Forecast
Issued by NWS

Current Version | Previous Version | Graphics & Text | Print | Product List | Glossary On
Versions: 1 2 3 4 5 6 7 8 9 10 11 12 13 14 15 16 17 18 19 20 21
568
FTUS41 KILN 260539
TAFLCK
TAF
KLCK 260539Z 2606/2706 00000KT P6SM SKC
     FM260900 00000KT 3SM BR SKC
      TEMPO 2609/2611 1SM BR
     FM261300 VRB02KT P6SM FEW250
     FM261700 17005KT P6SM FEW250=

USA.gov is the U.S. government's official web portal to all federal, state and local government web resources and services.